CheckWX is a tool to help pilots better visualize weather data.  It is not intended as a substitute for an official pre-flight weather briefing.

05:43:33 UTC

KRTN METAR
Raton Municipal / Crews Field Airport
Raton, New Mexico, USA
Current

51 mins ago

KRTN 260453Z AUTO 36005KT 10SM CLR 19/02 A3004 RMK AO2 SLP062 T01890022
Observed
Aug-26 @ 04:53 UTC
Wind
  • 360° at 5 KTS
Visibility
10 SM
Flight Rules
VFR
Cloud Levels
  • Clear skies
Temperature
19°C / 66°F
Dewpoint
C / 36°F
Humidity
32%
Altimeter
30.04" Hg
Pressure
1017.32 hPa
Previous

2 hours ago

KRTN 260353Z AUTO 06006KT 10SM CLR 21/02 A3004 RMK AO2 SLP065 T02110022
Observed
Aug-26 @ 03:53 UTC
Wind
  • 060° at 6 KTS
Visibility
10 SM
Flight Rules
VFR
Cloud Levels
  • Clear skies
Temperature
21°C / 70°F
Dewpoint
C / 36°F
Humidity
29%
Altimeter
30.04" Hg
Pressure
1017.32 hPa
Previous

3 hours ago

KRTN 260253Z AUTO 35004KT 10SM CLR 24/01 A3002 RMK AO2 SLP066 T02390011 53003
Observed
Aug-26 @ 02:53 UTC
Wind
  • 350° at 4 KTS
Visibility
10 SM
Flight Rules
VFR
Cloud Levels
  • Clear skies
Temperature
24°C / 75°F
Dewpoint
C / 34°F
Humidity
22%
Altimeter
30.02" Hg
Pressure
1016.62 hPa